createdAt,value
2018-05-27T00:02:27.057Z,99.90
2018-05-27T00:04:55.133Z,99.90
2018-05-27T00:07:23.209Z,99.90
2018-05-27T00:09:51.294Z,99.90
2018-05-27T00:12:20.272Z,99.90
2018-05-27T00:14:48.359Z,99.90
2018-05-27T00:17:16.430Z,99.90
2018-05-27T00:19:44.518Z,99.90
2018-05-27T00:22:18.113Z,99.90
2018-05-27T00:24:46.205Z,99.90
2018-05-27T00:27:15.041Z,99.90
2018-05-27T00:29:43.113Z,99.90
2018-05-27T00:32:12.125Z,99.90
2018-05-27T00:34:40.194Z,99.90
2018-05-27T00:37:08.266Z,99.90
2018-05-27T00:39:36.334Z,99.90
2018-05-27T00:42:06.359Z,99.90
2018-05-27T00:44:34.434Z,99.90
2018-05-27T00:47:02.510Z,99.90
2018-05-27T00:49:30.586Z,99.90
2018-05-27T00:51:59.565Z,99.90
2018-05-27T00:54:27.645Z,99.90
2018-05-27T00:56:55.722Z,99.90
2018-05-27T00:59:23.792Z,99.90
2018-05-27T01:02:22.785Z,99.90
2018-05-27T01:04:50.854Z,99.90
2018-05-27T01:07:18.934Z,99.90
2018-05-27T01:09:47.001Z,99.90
2018-05-27T01:12:19.762Z,99.90
2018-05-27T01:14:48.465Z,99.90
2018-05-27T01:17:16.546Z,99.90
2018-05-27T01:19:44.614Z,99.90
2018-05-27T01:22:40.349Z,99.90
2018-05-27T01:25:08.417Z,99.90
2018-05-27T01:27:37.253Z,99.90
2018-05-27T01:30:05.341Z,99.90
2018-05-27T01:32:37.597Z,99.90
2018-05-27T01:35:05.681Z,99.90
2018-05-27T01:37:34.673Z,99.90
2018-05-27T01:40:02.750Z,99.90
2018-05-27T01:42:48.214Z,99.90
2018-05-27T01:45:16.290Z,99.90
2018-05-27T01:47:44.358Z,99.90
2018-05-27T01:50:12.437Z,99.90
2018-05-27T01:52:44.805Z,99.90
2018-05-27T01:55:12.889Z,99.90
2018-05-27T01:57:40.953Z,99.90
2018-05-27T02:00:09.030Z,99.90
2018-05-27T02:03:15.917Z,99.90
2018-05-27T02:05:43.998Z,99.90
2018-05-27T02:08:12.837Z,99.90
2018-05-27T02:10:46.062Z,99.90
2018-05-27T02:13:14.223Z,99.90
2018-05-27T02:15:42.318Z,99.90
2018-05-27T02:18:10.405Z,99.90
2018-05-27T02:20:49.902Z,99.90
2018-05-27T02:23:17.989Z,99.90
2018-05-27T02:25:46.077Z,99.90
2018-05-27T02:28:14.233Z,99.90
2018-05-27T02:30:42.377Z,99.90
2018-05-27T02:33:10.449Z,99.90
2018-05-27T02:35:38.541Z,99.90
2018-05-27T02:38:06.601Z,99.90
2018-05-27T02:40:34.678Z,99.90
2018-05-27T02:43:02.761Z,99.90
2018-05-27T02:45:30.837Z,99.90
2018-05-27T02:47:58.913Z,99.90
2018-05-27T02:50:26.985Z,99.90
2018-05-27T02:52:55.077Z,99.90
2018-05-27T02:55:24.022Z,99.90
2018-05-27T02:57:52.101Z,99.90
2018-05-27T03:00:20.169Z,99.90
2018-05-27T03:02:48.269Z,99.90
2018-05-27T03:05:16.346Z,99.90
2018-05-27T03:07:45.198Z,99.90
2018-05-27T03:10:13.264Z,99.90
2018-05-27T03:13:04.517Z,99.90
2018-05-27T03:15:33.367Z,99.90
2018-05-27T03:18:01.442Z,99.90
2018-05-27T03:20:29.533Z,99.90
2018-05-27T03:22:57.606Z,99.90
2018-05-27T03:25:25.773Z,99.90
2018-05-27T03:27:53.850Z,99.90
2018-05-27T03:30:21.925Z,99.90
2018-05-27T03:32:50.019Z,99.90
2018-05-27T03:35:18.862Z,99.90
2018-05-27T03:37:46.938Z,99.90
2018-05-27T03:40:15.088Z,99.90
2018-05-27T03:43:05.553Z,99.90
2018-05-27T03:45:33.647Z,99.90
2018-05-27T03:48:01.802Z,99.90
2018-05-27T03:50:45.273Z,99.90
2018-05-27T03:53:13.380Z,99.90
2018-05-27T03:55:41.477Z,99.90
2018-05-27T03:58:11.141Z,99.90
2018-05-27T04:00:39.209Z,99.90
2018-05-27T04:03:07.282Z,99.90
2018-05-27T04:05:53.318Z,99.90
2018-05-27T04:08:42.492Z,99.90
2018-05-27T04:11:47.091Z,99.90
2018-05-27T04:14:15.169Z,99.90
2018-05-27T04:16:44.021Z,99.90
2018-05-27T04:19:12.095Z,99.90
2018-05-27T04:21:40.170Z,99.90
2018-05-27T04:24:08.249Z,99.90
2018-05-27T04:26:36.323Z,99.90
2018-05-27T04:29:04.406Z,99.90
2018-05-27T04:31:34.403Z,99.90
2018-05-27T04:34:02.503Z,99.90
2018-05-27T04:36:31.397Z,99.90
2018-05-27T04:38:59.441Z,99.90
2018-05-27T04:41:31.094Z,99.90
2018-05-27T04:43:59.178Z,99.90
2018-05-27T04:46:27.257Z,99.90
2018-05-27T04:48:56.105Z,99.90
2018-05-27T04:51:24.189Z,99.90
2018-05-27T04:53:52.266Z,99.90
2018-05-27T04:56:20.357Z,99.90
2018-05-27T04:58:48.437Z,99.90
2018-05-27T05:01:16.537Z,99.90
2018-05-27T05:03:44.606Z,99.90
2018-05-27T05:06:12.693Z,99.90
2018-05-27T05:08:40.773Z,99.90
2018-05-27T05:11:09.806Z,99.90
2018-05-27T05:13:37.889Z,99.90
2018-05-27T05:16:06.741Z,99.90
2018-05-27T05:18:34.825Z,99.90
2018-05-27T05:21:02.909Z,99.90
2018-05-27T05:23:30.985Z,99.90
2018-05-27T05:25:59.067Z,99.90
2018-05-27T05:28:36.427Z,99.90
2018-05-27T05:31:04.513Z,99.90
2018-05-27T05:33:32.601Z,99.90
2018-05-27T05:36:01.474Z,99.90
2018-05-27T05:38:29.541Z,99.90
2018-05-27T05:40:59.553Z,99.90
2018-05-27T05:43:27.625Z,99.90
2018-05-27T05:45:55.701Z,99.90
2018-05-27T05:48:23.789Z,99.90
2018-05-27T05:50:57.885Z,99.90
2018-05-27T05:53:25.990Z,99.90
2018-05-27T05:55:54.074Z,99.90
2018-05-27T05:58:22.154Z,99.90
2018-05-27T06:00:57.945Z,99.90
2018-05-27T06:03:26.033Z,99.90
2018-05-27T06:05:54.109Z,99.90
2018-05-27T06:08:22.957Z,99.90
2018-05-27T06:10:51.041Z,99.90
2018-05-27T06:13:19.130Z,99.90
2018-05-27T06:15:47.205Z,99.90
2018-05-27T06:18:15.295Z,99.90
2018-05-27T06:20:44.329Z,99.90
2018-05-27T06:23:12.414Z,99.90
2018-05-27T06:25:40.512Z,99.90
2018-05-27T06:28:08.593Z,99.90
2018-05-27T06:30:37.433Z,99.90
2018-05-27T06:33:05.538Z,99.90
2018-05-27T06:35:33.617Z,99.90
2018-05-27T06:38:01.708Z,99.90
2018-05-27T06:40:30.563Z,99.90
2018-05-27T06:42:58.640Z,99.90
2018-05-27T06:45:26.749Z,99.90
2018-05-27T06:47:54.845Z,99.90
2018-05-27T06:50:23.702Z,99.90
2018-05-27T06:52:52.570Z,99.90
2018-05-27T06:55:20.961Z,99.90
2018-05-27T06:57:49.813Z,99.90
2018-05-27T07:00:17.897Z,99.90
2018-05-27T07:02:49.126Z,99.90
2018-05-27T07:05:17.209Z,99.90
2018-05-27T07:07:45.286Z,99.90
2018-05-27T07:10:13.369Z,99.90
2018-05-27T07:12:41.450Z,99.90
2018-05-27T07:15:10.298Z,99.90
2018-05-27T07:17:38.389Z,99.90
2018-05-27T07:20:06.484Z,99.90
2018-05-27T07:22:43.325Z,99.90
2018-05-27T07:25:11.410Z,99.90
2018-05-27T07:27:39.505Z,99.90
2018-05-27T07:30:08.358Z,99.90
2018-05-27T07:32:47.913Z,99.90
2018-05-27T07:35:16.002Z,99.90
2018-05-27T07:37:44.841Z,99.90
2018-05-27T07:40:12.934Z,99.90
2018-05-27T07:42:41.009Z,99.90
2018-05-27T07:45:09.084Z,99.90
2018-05-27T07:47:37.167Z,99.90
2018-05-27T07:50:05.238Z,99.90
2018-05-27T07:52:51.602Z,99.90
2018-05-27T07:55:19.679Z,99.90
2018-05-27T07:57:47.786Z,99.90
2018-05-27T08:00:16.632Z,99.90
2018-05-27T08:02:45.649Z,99.90
2018-05-27T08:05:13.727Z,99.90
2018-05-27T08:07:41.811Z,99.90
2018-05-27T08:10:09.911Z,99.90
2018-05-27T08:12:37.996Z,99.90
2018-05-27T08:15:06.070Z,99.90
2018-05-27T08:17:34.145Z,99.90
2018-05-27T08:20:02.231Z,99.90
2018-05-27T08:22:32.305Z,99.90
2018-05-27T08:25:01.189Z,99.90
2018-05-27T08:27:29.233Z,99.90
2018-05-27T08:29:57.302Z,99.90
2018-05-27T08:32:32.965Z,99.90
2018-05-27T08:35:01.100Z,99.90
2018-05-27T08:37:29.897Z,99.90
2018-05-27T08:39:57.965Z,99.90
2018-05-27T08:42:26.973Z,99.90
2018-05-27T08:44:55.045Z,99.90
2018-05-27T08:47:23.141Z,99.90
2018-05-27T08:49:51.982Z,99.90
2018-05-27T08:52:27.645Z,99.90
2018-05-27T08:54:55.758Z,99.90
2018-05-27T08:57:24.724Z,99.90
2018-05-27T08:59:52.826Z,99.90
2018-05-27T09:02:21.922Z,99.90
2018-05-27T09:04:50.082Z,99.90
2018-05-27T09:07:18.970Z,99.90
2018-05-27T09:09:47.907Z,99.90
2018-05-27T09:12:19.733Z,99.90
2018-05-27T09:14:48.603Z,99.80
2018-05-27T09:17:16.702Z,99.40
2018-05-27T09:19:44.853Z,99.20
2018-05-27T09:22:24.228Z,98.40
2018-05-27T09:24:52.317Z,98.00
2018-05-27T09:27:20.419Z,98.10
2018-05-27T09:29:48.519Z,96.00
2018-05-27T09:32:18.645Z,97.60
2018-05-27T09:34:46.785Z,99.40
2018-05-27T09:37:14.854Z,97.80
2018-05-27T09:39:42.935Z,97.40
2018-05-27T09:42:17.746Z,94.20
2018-05-27T09:44:45.826Z,94.50
2018-05-27T09:47:14.698Z,92.70
2018-05-27T09:49:42.781Z,92.60
2018-05-27T09:52:18.109Z,94.30
2018-05-27T09:54:46.186Z,93.10
2018-05-27T09:57:14.257Z,84.30
2018-05-27T09:59:43.474Z,93.70
2018-05-27T10:02:11.545Z,95.30
2018-05-27T10:04:39.629Z,81.70
2018-05-27T10:07:08.470Z,77.40
2018-05-27T10:09:36.566Z,77.40
2018-05-27T10:12:05.541Z,83.50
2018-05-27T10:14:33.633Z,82.20
2018-05-27T10:17:01.716Z,77.90
2018-05-27T10:19:29.789Z,72.10
2018-05-27T10:22:03.273Z,72.10
2018-05-27T10:24:31.340Z,77.50
2018-05-27T10:26:59.425Z,70.70
2018-05-27T10:29:27.497Z,68.60
2018-05-27T10:31:55.573Z,67.10
2018-05-27T10:34:24.415Z,67.30
2018-05-27T10:36:52.500Z,66.30
2018-05-27T10:39:20.573Z,65.10
2018-05-27T10:41:50.638Z,65.10
2018-05-27T10:44:19.484Z,63.50
2018-05-27T10:46:47.604Z,61.80
2018-05-27T10:49:16.460Z,61.20
2018-05-27T10:51:44.537Z,60.30
2018-05-27T10:54:12.618Z,60.40
2018-05-27T10:56:41.469Z,56.80
2018-05-27T10:59:09.543Z,56.70
2018-05-27T11:01:45.417Z,54.20
2018-05-27T11:04:13.489Z,55.60
2018-05-27T11:06:41.589Z,57.30
2018-05-27T11:09:09.744Z,57.20
2018-05-27T11:11:38.645Z,63.90
2018-05-27T11:14:06.745Z,63.80
2018-05-27T11:16:34.833Z,63.20
2018-05-27T11:19:02.973Z,65.10
2018-05-27T11:21:39.255Z,65.60
2018-05-27T11:24:07.395Z,57.10
2018-05-27T11:26:36.286Z,54.30
2018-05-27T11:29:05.203Z,53.30
2018-05-27T11:31:44.850Z,53.30
2018-05-27T11:34:13.002Z,52.50
2018-05-27T11:36:41.959Z,52.40
2018-05-27T11:39:10.053Z,52.50
2018-05-27T11:41:38.985Z,51.00
2018-05-27T11:44:07.126Z,50.90
2018-05-27T11:46:35.462Z,52.40
2018-05-27T11:49:03.546Z,52.10
2018-05-27T11:51:39.940Z,54.00
2018-05-27T11:54:08.784Z,63.50
2018-05-27T11:56:36.861Z,64.20
2018-05-27T11:59:04.981Z,63.00
2018-05-27T12:01:36.685Z,50.60
2018-05-27T12:04:04.766Z,49.70
2018-05-27T12:06:32.899Z,49.70
2018-05-27T12:09:01.020Z,49.50
2018-05-27T12:11:37.790Z,50.70
2018-05-27T12:14:05.881Z,50.00
2018-05-27T12:16:35.866Z,52.70
2018-05-27T12:19:12.612Z,48.30
2018-05-27T12:21:44.983Z,47.30
2018-05-27T12:24:13.161Z,47.70
2018-05-27T12:29:09.440Z,43.00
2018-05-27T12:31:38.429Z,44.10
2018-05-27T12:34:06.501Z,44.00
2018-05-27T12:36:34.573Z,44.90
2018-05-27T12:39:02.655Z,44.90
2018-05-27T12:41:46.051Z,46.20
2018-05-27T12:44:14.129Z,46.90
2018-05-27T12:46:42.229Z,46.70
2018-05-27T12:49:10.302Z,45.40
2018-05-27T12:51:40.309Z,46.10
2018-05-27T12:54:08.393Z,44.30
2018-05-27T12:56:36.515Z,44.40
2018-05-27T12:59:04.591Z,44.80
2018-05-27T13:01:33.461Z,46.00
2018-05-27T13:04:01.527Z,46.00
2018-05-27T13:06:29.616Z,42.90
2018-05-27T13:08:57.686Z,45.40
2018-05-27T13:11:43.786Z,45.50
2018-05-27T13:14:11.861Z,47.90
2018-05-27T13:16:40.077Z,45.70
2018-05-27T13:19:08.021Z,44.40
2018-05-27T13:21:48.401Z,44.70
2018-05-27T13:24:23.625Z,40.60
2018-05-27T13:26:51.734Z,40.90
2018-05-27T13:29:20.646Z,39.20
2018-05-27T13:31:54.261Z,39.20
2018-05-27T13:34:22.374Z,41.30
2018-05-27T13:36:50.570Z,40.50
2018-05-27T13:39:19.507Z,37.30
2018-05-27T13:41:50.951Z,37.30
2018-05-27T13:44:19.115Z,38.20
2018-05-27T13:46:47.225Z,39.60
2018-05-27T13:49:15.373Z,37.80
2018-05-27T13:51:54.061Z,39.20
2018-05-27T13:54:23.383Z,39.70
2018-05-27T13:56:51.490Z,40.20
2018-05-27T13:59:19.633Z,42.00
2018-05-27T14:01:48.704Z,40.60
2018-05-27T14:04:16.846Z,39.40
2018-05-27T14:06:45.010Z,35.60
2018-05-27T14:09:13.306Z,38.40
2018-05-27T14:11:42.219Z,40.40
2018-05-27T14:14:10.360Z,40.50
2018-05-27T14:16:38.522Z,35.70
2018-05-27T14:19:06.699Z,37.00
2018-05-27T14:21:36.042Z,37.20
2018-05-27T14:24:04.232Z,37.70
2018-05-27T14:26:32.359Z,36.70
2018-05-27T14:29:00.450Z,37.80
2018-05-27T14:31:37.801Z,38.90
2018-05-27T14:34:05.896Z,38.90
2018-05-27T14:36:33.971Z,37.40
2018-05-27T14:39:02.810Z,37.80
2018-05-27T14:42:15.953Z,37.80
2018-05-27T14:44:44.077Z,38.10
2018-05-27T14:47:12.105Z,37.60
2018-05-27T14:49:40.177Z,37.90
2018-05-27T14:52:21.406Z,38.40
2018-05-27T14:54:49.498Z,41.00
2018-05-27T14:57:17.573Z,41.70
2018-05-27T14:59:45.650Z,38.30
2018-05-27T15:02:18.960Z,39.60
2018-05-27T15:04:47.072Z,39.20
2018-05-27T15:07:15.914Z,38.70
2018-05-27T15:09:43.986Z,38.60
2018-05-27T15:12:13.045Z,36.70
2018-05-27T15:14:41.083Z,37.80
2018-05-27T15:17:09.161Z,39.20
2018-05-27T15:19:38.015Z,36.10
2018-05-27T15:22:10.811Z,36.10
2018-05-27T15:24:39.822Z,36.00
2018-05-27T15:27:07.891Z,37.60
2018-05-27T15:29:36.743Z,39.90
2018-05-27T15:32:11.912Z,39.70
2018-05-27T15:34:39.969Z,36.50
2018-05-27T15:37:08.043Z,37.40
2018-05-27T15:39:36.118Z,37.60
2018-05-27T15:42:04.193Z,38.00
2018-05-27T15:44:32.263Z,36.30
2018-05-27T15:47:00.350Z,34.30
2018-05-27T15:49:29.199Z,36.70
2018-05-27T15:51:57.298Z,36.70
2018-05-27T15:54:25.369Z,36.70
2018-05-27T15:56:53.469Z,37.80
2018-05-27T15:59:21.541Z,41.90
2018-05-27T16:01:50.594Z,41.30
2018-05-27T16:04:18.666Z,39.60
2018-05-27T16:06:46.741Z,38.80
2018-05-27T16:09:14.824Z,39.70
2018-05-27T16:11:42.904Z,41.20
2018-05-27T16:14:11.765Z,45.60
2018-05-27T16:16:39.835Z,45.60
2018-05-27T16:19:07.917Z,45.70
2018-05-27T16:21:37.917Z,46.90
2018-05-27T16:24:05.994Z,47.70
2018-05-27T16:26:34.067Z,50.10
2018-05-27T16:29:02.158Z,50.00
2018-05-27T16:31:31.225Z,51.10
2018-05-27T16:34:00.437Z,54.60
2018-05-27T16:36:28.505Z,55.10
2018-05-27T16:38:56.602Z,55.60
2018-05-27T16:41:35.822Z,57.70
2018-05-27T16:44:05.040Z,58.00
2018-05-27T16:46:33.107Z,58.50
2018-05-27T16:49:01.998Z,58.30
2018-05-27T16:51:38.262Z,59.80
2018-05-27T16:54:07.127Z,63.50
2018-05-27T16:56:35.220Z,63.40
2018-05-27T16:59:04.158Z,63.90
2018-05-27T17:01:34.190Z,63.90
2018-05-27T17:04:02.266Z,72.30
2018-05-27T17:06:30.346Z,71.80
2018-05-27T17:08:58.416Z,69.70
2018-05-27T17:11:28.429Z,71.90
2018-05-27T17:13:56.498Z,73.50
2018-05-27T17:16:24.582Z,75.30
2018-05-27T17:18:52.649Z,78.30
2018-05-27T17:21:38.614Z,75.20
2018-05-27T17:24:06.746Z,75.20
2018-05-27T17:26:34.841Z,76.60
2018-05-27T17:29:02.987Z,77.40
2018-05-27T17:31:54.162Z,73.80
2018-05-27T17:34:22.331Z,73.80
2018-05-27T17:36:50.446Z,74.30
2018-05-27T17:39:19.370Z,74.00
2018-05-27T17:41:48.488Z,73.90
2018-05-27T17:44:16.632Z,75.20
2018-05-27T17:46:44.770Z,76.60
2018-05-27T17:49:13.653Z,76.70
2018-05-27T17:51:48.270Z,78.00
2018-05-27T17:54:16.397Z,77.80
2018-05-27T17:56:44.469Z,79.20
2018-05-27T17:59:12.537Z,79.80
2018-05-27T18:01:40.622Z,83.20
2018-05-27T18:04:08.732Z,82.80
2018-05-27T18:06:36.787Z,83.30
2018-05-27T18:09:05.609Z,84.30
2018-05-27T18:11:51.331Z,85.70
2018-05-27T18:14:19.405Z,85.60
2018-05-27T18:16:47.485Z,88.30
2018-05-27T18:19:15.561Z,86.60
2018-05-27T18:21:44.558Z,88.80
2018-05-27T18:24:12.622Z,90.60
2018-05-27T18:26:40.723Z,92.30
2018-05-27T18:29:08.811Z,94.50
2018-05-27T18:31:39.177Z,95.50
2018-05-27T18:34:07.269Z,95.40
2018-05-27T18:36:35.342Z,96.80
2018-05-27T18:39:03.446Z,97.10
2018-05-27T18:41:35.496Z,97.40
2018-05-27T18:44:03.659Z,97.50
2018-05-27T18:46:32.884Z,97.00
2018-05-27T18:49:01.753Z,97.50
2018-05-27T18:51:29.834Z,97.40
2018-05-27T18:53:57.918Z,96.60
2018-05-27T18:56:26.014Z,96.50
2018-05-27T18:58:54.141Z,98.40
2018-05-27T19:01:23.197Z,99.30
2018-05-27T19:03:51.322Z,99.90
2018-05-27T19:06:20.388Z,99.60
2018-05-27T19:08:48.507Z,99.60
2018-05-27T19:11:20.722Z,99.90
2018-05-27T19:13:48.854Z,99.90
2018-05-27T19:16:16.997Z,99.90
2018-05-27T19:18:45.102Z,99.90
2018-05-27T19:21:22.502Z,99.90
2018-05-27T19:23:50.593Z,99.90
2018-05-27T19:26:18.666Z,99.90
2018-05-27T19:28:46.755Z,99.90
2018-05-27T19:31:18.413Z,99.90
2018-05-27T19:33:46.498Z,99.90
2018-05-27T19:36:14.582Z,99.90
2018-05-27T19:38:42.731Z,99.90
2018-05-27T19:41:12.770Z,99.90
2018-05-27T19:43:42.016Z,99.90
2018-05-27T19:46:10.210Z,99.90
2018-05-27T19:48:38.322Z,99.90
2018-05-27T19:51:12.416Z,99.90
2018-05-27T19:53:41.330Z,99.90
2018-05-27T19:58:37.636Z,99.90
2018-05-27T20:01:12.778Z,99.90
2018-05-27T20:03:40.850Z,99.90
2018-05-27T20:06:08.943Z,99.90
2018-05-27T20:08:37.777Z,99.90
2018-05-27T20:11:05.870Z,99.90
2018-05-27T20:13:33.946Z,99.90
2018-05-27T20:16:02.024Z,99.90
2018-05-27T20:18:30.103Z,99.90
2018-05-27T20:21:05.522Z,99.90
2018-05-27T20:23:33.658Z,99.90
2018-05-27T20:26:01.689Z,99.90
2018-05-27T20:28:29.781Z,99.90
2018-05-27T20:30:59.773Z,99.90
2018-05-27T20:33:27.893Z,99.90
2018-05-27T20:35:55.988Z,99.90
2018-05-27T20:38:24.075Z,99.90
2018-05-27T20:40:53.061Z,99.90
2018-05-27T20:43:21.144Z,99.90
2018-05-27T20:45:49.218Z,99.90
2018-05-27T20:48:17.293Z,99.90
2018-05-27T20:50:49.036Z,99.90
2018-05-27T20:53:17.109Z,99.90
2018-05-27T20:55:45.177Z,99.90
2018-05-27T20:58:13.245Z,99.90
2018-05-27T21:00:42.238Z,99.90
2018-05-27T21:03:10.321Z,99.90
2018-05-27T21:05:38.395Z,99.90
2018-05-27T21:08:06.466Z,99.90
2018-05-27T21:10:36.482Z,99.90
2018-05-27T21:13:04.558Z,99.90
2018-05-27T21:15:32.639Z,99.90
2018-05-27T21:18:00.735Z,99.90
2018-05-27T21:20:29.758Z,99.90
2018-05-27T21:22:57.821Z,99.90
2018-05-27T21:25:25.901Z,99.90
2018-05-27T21:27:54.914Z,99.90
2018-05-27T21:30:23.034Z,99.90
2018-05-27T21:32:52.082Z,99.90
2018-05-27T21:35:20.885Z,99.90
2018-05-27T21:37:50.138Z,99.90
2018-05-27T21:40:26.767Z,99.90
2018-05-27T21:42:55.105Z,99.90
2018-05-27T21:51:31.731Z,99.90
2018-05-27T21:54:08.823Z,99.90
2018-05-27T22:02:15.017Z,99.90
2018-05-27T22:04:43.093Z,99.90
2018-05-27T22:07:11.178Z,99.90
2018-05-27T22:09:39.249Z,99.90
2018-05-27T22:12:07.325Z,99.90
2018-05-27T22:14:36.162Z,99.90
2018-05-27T22:17:04.254Z,99.90
2018-05-27T22:19:32.372Z,99.90
2018-05-27T22:22:03.266Z,99.90
2018-05-27T22:24:31.379Z,99.90
2018-05-27T22:27:00.266Z,99.90
2018-05-27T22:29:28.439Z,99.90
2018-05-27T22:32:12.678Z,99.90
2018-05-27T22:34:41.566Z,99.90
2018-05-27T22:37:09.709Z,99.90
2018-05-27T22:39:37.833Z,99.90
2018-05-27T22:42:06.959Z,99.90
2018-05-27T22:44:35.079Z,99.90
2018-05-27T22:47:03.206Z,99.90
2018-05-27T22:49:31.306Z,99.90
2018-05-27T22:52:01.387Z,99.90
2018-05-27T22:54:29.568Z,99.90
2018-05-27T22:56:57.713Z,99.90
2018-05-27T22:59:25.821Z,99.90
2018-05-27T23:02:01.256Z,99.90
2018-05-27T23:04:29.390Z,99.90
2018-05-27T23:06:58.270Z,99.90
2018-05-27T23:09:27.190Z,99.90
2018-05-27T23:11:57.323Z,99.90
2018-05-27T23:14:25.430Z,99.90
2018-05-27T23:16:53.537Z,99.90
2018-05-27T23:19:21.702Z,99.90
2018-05-27T23:22:12.372Z,99.90
2018-05-27T23:24:40.518Z,99.90
2018-05-27T23:27:08.623Z,99.90
2018-05-27T23:29:36.814Z,99.90
2018-05-27T23:32:05.705Z,99.90
2018-05-27T23:34:33.846Z,99.90
2018-05-27T23:37:01.965Z,99.90
2018-05-27T23:39:30.853Z,99.90
2018-05-27T23:42:21.206Z,99.90
2018-05-27T23:44:49.307Z,99.90
2018-05-27T23:47:18.189Z,99.90
2018-05-27T23:49:46.330Z,99.90
2018-05-27T23:52:16.381Z,99.90
2018-05-27T23:54:44.502Z,99.90
2018-05-27T23:57:12.611Z,99.90
2018-05-27T23:59:40.717Z,99.90
